sensor_id;sensor_type;location;lat;lon;timestamp;P1;durP1;ratioP1;P2;durP2;ratioP2
15356;SDS011;7778;48.792;9.260;2023-01-23T00:01:47;13.98;;;7.35;;
15356;SDS011;7778;48.792;9.260;2023-01-23T00:04:34;20.02;;;7.95;;
15356;SDS011;7778;48.792;9.260;2023-01-23T00:07:19;13.80;;;7.60;;
15356;SDS011;7778;48.792;9.260;2023-01-23T00:10:05;16.13;;;7.25;;
15356;SDS011;7778;48.792;9.260;2023-01-23T00:12:52;15.07;;;7.10;;
15356;SDS011;7778;48.792;9.260;2023-01-23T00:15:41;11.75;;;5.90;;
15356;SDS011;7778;48.792;9.260;2023-01-23T00:18:27;11.38;;;6.50;;
15356;SDS011;7778;48.792;9.260;2023-01-23T00:21:14;12.60;;;6.20;;
15356;SDS011;7778;48.792;9.260;2023-01-23T00:24:02;15.77;;;7.32;;
15356;SDS011;7778;48.792;9.260;2023-01-23T00:26:48;17.85;;;7.55;;
15356;SDS011;7778;48.792;9.260;2023-01-23T00:29:34;14.05;;;7.18;;
15356;SDS011;7778;48.792;9.260;2023-01-23T00:32:21;12.27;;;6.50;;
15356;SDS011;7778;48.792;9.260;2023-01-23T00:35:07;14.68;;;7.47;;
15356;SDS011;7778;48.792;9.260;2023-01-23T00:37:53;13.05;;;6.82;;
15356;SDS011;7778;48.792;9.260;2023-01-23T00:40:40;11.05;;;6.18;;
15356;SDS011;7778;48.792;9.260;2023-01-23T00:43:26;12.10;;;7.13;;
15356;SDS011;7778;48.792;9.260;2023-01-23T00:46:13;13.50;;;6.93;;
15356;SDS011;7778;48.792;9.260;2023-01-23T00:49:00;12.45;;;7.35;;
15356;SDS011;7778;48.792;9.260;2023-01-23T00:51:46;10.60;;;6.15;;
15356;SDS011;7778;48.792;9.260;2023-01-23T00:54:33;11.82;;;5.93;;
15356;SDS011;7778;48.792;9.260;2023-01-23T00:57:20;10.98;;;6.88;;
15356;SDS011;7778;48.792;9.260;2023-01-23T01:00:07;14.02;;;7.22;;
15356;SDS011;7778;48.792;9.260;2023-01-23T01:02:54;15.40;;;7.03;;
15356;SDS011;7778;48.792;9.260;2023-01-23T01:05:41;11.95;;;6.88;;
15356;SDS011;7778;48.792;9.260;2023-01-23T01:08:26;14.10;;;7.35;;
15356;SDS011;7778;48.792;9.260;2023-01-23T01:11:12;17.15;;;6.90;;
15356;SDS011;7778;48.792;9.260;2023-01-23T01:13:57;11.23;;;6.43;;
15356;SDS011;7778;48.792;9.260;2023-01-23T01:16:43;16.02;;;7.93;;
15356;SDS011;7778;48.792;9.260;2023-01-23T01:19:29;8.38;;;5.13;;
15356;SDS011;7778;48.792;9.260;2023-01-23T01:22:16;13.10;;;7.28;;
15356;SDS011;7778;48.792;9.260;2023-01-23T01:25:01;12.43;;;6.90;;
15356;SDS011;7778;48.792;9.260;2023-01-23T01:27:47;15.02;;;6.68;;
15356;SDS011;7778;48.792;9.260;2023-01-23T01:30:33;11.55;;;6.78;;
15356;SDS011;7778;48.792;9.260;2023-01-23T01:33:19;10.10;;;4.68;;
15356;SDS011;7778;48.792;9.260;2023-01-23T01:36:07;15.05;;;8.15;;
15356;SDS011;7778;48.792;9.260;2023-01-23T01:38:55;11.77;;;5.82;;
15356;SDS011;7778;48.792;9.260;2023-01-23T01:41:40;11.73;;;6.32;;
15356;SDS011;7778;48.792;9.260;2023-01-23T01:44:26;11.88;;;5.53;;
15356;SDS011;7778;48.792;9.260;2023-01-23T01:47:11;17.60;;;6.05;;
15356;SDS011;7778;48.792;9.260;2023-01-23T01:49:59;10.65;;;6.25;;
15356;SDS011;7778;48.792;9.260;2023-01-23T01:52:48;13.45;;;7.13;;
15356;SDS011;7778;48.792;9.260;2023-01-23T01:55:35;13.93;;;7.20;;
15356;SDS011;7778;48.792;9.260;2023-01-23T01:58:23;18.27;;;8.48;;
15356;SDS011;7778;48.792;9.260;2023-01-23T02:01:09;14.40;;;7.40;;
15356;SDS011;7778;48.792;9.260;2023-01-23T02:03:55;13.85;;;7.15;;
15356;SDS011;7778;48.792;9.260;2023-01-23T02:06:46;13.38;;;7.38;;
15356;SDS011;7778;48.792;9.260;2023-01-23T02:09:34;10.85;;;5.25;;
15356;SDS011;7778;48.792;9.260;2023-01-23T02:12:22;13.35;;;6.82;;
15356;SDS011;7778;48.792;9.260;2023-01-23T02:15:09;12.10;;;7.40;;
15356;SDS011;7778;48.792;9.260;2023-01-23T02:17:55;16.48;;;7.50;;
15356;SDS011;7778;48.792;9.260;2023-01-23T02:20:40;13.52;;;7.35;;
15356;SDS011;7778;48.792;9.260;2023-01-23T02:23:28;13.23;;;6.57;;
15356;SDS011;7778;48.792;9.260;2023-01-23T02:26:28;12.13;;;6.75;;
15356;SDS011;7778;48.792;9.260;2023-01-23T02:29:19;14.05;;;6.65;;
15356;SDS011;7778;48.792;9.260;2023-01-23T02:32:05;14.13;;;6.80;;
15356;SDS011;7778;48.792;9.260;2023-01-23T02:34:51;10.93;;;6.38;;
15356;SDS011;7778;48.792;9.260;2023-01-23T02:37:42;11.98;;;6.50;;
15356;SDS011;7778;48.792;9.260;2023-01-23T02:40:31;12.27;;;7.13;;
15356;SDS011;7778;48.792;9.260;2023-01-23T02:43:21;13.30;;;6.93;;
15356;SDS011;7778;48.792;9.260;2023-01-23T02:46:11;12.15;;;6.20;;
15356;SDS011;7778;48.792;9.260;2023-01-23T02:48:58;11.35;;;6.55;;
15356;SDS011;7778;48.792;9.260;2023-01-23T02:51:43;14.27;;;6.63;;
15356;SDS011;7778;48.792;9.260;2023-01-23T02:54:29;12.95;;;6.53;;
15356;SDS011;7778;48.792;9.260;2023-01-23T02:57:15;18.00;;;7.10;;
15356;SDS011;7778;48.792;9.260;2023-01-23T03:00:02;9.68;;;6.20;;
15356;SDS011;7778;48.792;9.260;2023-01-23T03:03:02;13.30;;;7.10;;
15356;SDS011;7778;48.792;9.260;2023-01-23T03:05:48;16.85;;;7.00;;
15356;SDS011;7778;48.792;9.260;2023-01-23T03:08:34;12.40;;;6.05;;
15356;SDS011;7778;48.792;9.260;2023-01-23T03:11:31;12.73;;;6.97;;
15356;SDS011;7778;48.792;9.260;2023-01-23T03:14:19;12.60;;;6.22;;
15356;SDS011;7778;48.792;9.260;2023-01-23T03:17:08;10.70;;;6.47;;
15356;SDS011;7778;48.792;9.260;2023-01-23T03:19:53;19.55;;;8.32;;
15356;SDS011;7778;48.792;9.260;2023-01-23T03:22:40;12.45;;;6.70;;
15356;SDS011;7778;48.792;9.260;2023-01-23T03:25:25;13.45;;;7.20;;
15356;SDS011;7778;48.792;9.260;2023-01-23T03:28:11;17.35;;;7.10;;
15356;SDS011;7778;48.792;9.260;2023-01-23T03:31:11;14.32;;;7.20;;
15356;SDS011;7778;48.792;9.260;2023-01-23T03:33:58;13.98;;;6.63;;
15356;SDS011;7778;48.792;9.260;2023-01-23T03:36:44;12.75;;;7.53;;
15356;SDS011;7778;48.792;9.260;2023-01-23T03:39:30;13.07;;;7.03;;
15356;SDS011;7778;48.792;9.260;2023-01-23T03:42:34;16.00;;;7.20;;
15356;SDS011;7778;48.792;9.260;2023-01-23T03:45:20;15.10;;;7.00;;
15356;SDS011;7778;48.792;9.260;2023-01-23T03:48:06;11.32;;;6.45;;
15356;SDS011;7778;48.792;9.260;2023-01-23T03:50:52;16.20;;;7.80;;
15356;SDS011;7778;48.792;9.260;2023-01-23T03:53:38;14.43;;;5.93;;
15356;SDS011;7778;48.792;9.260;2023-01-23T03:56:24;15.45;;;7.72;;
15356;SDS011;7778;48.792;9.260;2023-01-23T03:59:09;15.73;;;7.22;;
15356;SDS011;7778;48.792;9.260;2023-01-23T04:01:55;13.43;;;6.85;;
15356;SDS011;7778;48.792;9.260;2023-01-23T04:04:40;15.25;;;7.65;;
15356;SDS011;7778;48.792;9.260;2023-01-23T04:07:27;14.57;;;7.35;;
15356;SDS011;7778;48.792;9.260;2023-01-23T04:10:13;10.93;;;6.00;;
15356;SDS011;7778;48.792;9.260;2023-01-23T04:12:58;14.93;;;7.63;;
15356;SDS011;7778;48.792;9.260;2023-01-23T04:15:44;14.27;;;6.30;;
15356;SDS011;7778;48.792;9.260;2023-01-23T04:18:31;13.52;;;6.75;;
15356;SDS011;7778;48.792;9.260;2023-01-23T04:21:17;13.95;;;7.93;;
15356;SDS011;7778;48.792;9.260;2023-01-23T04:24:04;15.70;;;7.40;;
15356;SDS011;7778;48.792;9.260;2023-01-23T04:26:50;16.13;;;7.25;;
15356;SDS011;7778;48.792;9.260;2023-01-23T04:29:36;15.93;;;7.78;;
15356;SDS011;7778;48.792;9.260;2023-01-23T04:32:22;13.98;;;7.07;;
15356;SDS011;7778;48.792;9.260;2023-01-23T04:35:08;16.58;;;8.05;;
15356;SDS011;7778;48.792;9.260;2023-01-23T04:37:53;15.25;;;7.47;;
15356;SDS011;7778;48.792;9.260;2023-01-23T04:40:40;20.17;;;7.35;;
15356;SDS011;7778;48.792;9.260;2023-01-23T04:43:26;19.10;;;9.80;;
15356;SDS011;7778;48.792;9.260;2023-01-23T04:46:11;13.55;;;6.78;;
15356;SDS011;7778;48.792;9.260;2023-01-23T04:48:57;16.80;;;8.18;;
15356;SDS011;7778;48.792;9.260;2023-01-23T04:51:43;15.07;;;7.18;;
15356;SDS011;7778;48.792;9.260;2023-01-23T04:54:30;17.42;;;7.55;;
15356;SDS011;7778;48.792;9.260;2023-01-23T04:57:17;17.08;;;8.00;;
15356;SDS011;7778;48.792;9.260;2023-01-23T05:00:03;17.85;;;8.40;;
15356;SDS011;7778;48.792;9.260;2023-01-23T05:02:50;22.42;;;9.20;;
15356;SDS011;7778;48.792;9.260;2023-01-23T05:05:35;17.15;;;9.07;;
15356;SDS011;7778;48.792;9.260;2023-01-23T05:08:21;16.45;;;7.82;;
15356;SDS011;7778;48.792;9.260;2023-01-23T05:11:06;15.65;;;7.97;;
15356;SDS011;7778;48.792;9.260;2023-01-23T05:13:53;15.60;;;8.15;;
15356;SDS011;7778;48.792;9.260;2023-01-23T05:16:39;15.88;;;7.18;;
15356;SDS011;7778;48.792;9.260;2023-01-23T05:19:24;21.63;;;8.50;;
15356;SDS011;7778;48.792;9.260;2023-01-23T05:22:10;12.93;;;7.20;;
15356;SDS011;7778;48.792;9.260;2023-01-23T05:24:55;20.25;;;9.50;;
15356;SDS011;7778;48.792;9.260;2023-01-23T05:27:41;17.50;;;7.88;;
15356;SDS011;7778;48.792;9.260;2023-01-23T05:30:28;13.95;;;7.65;;
15356;SDS011;7778;48.792;9.260;2023-01-23T05:33:13;23.15;;;9.93;;
15356;SDS011;7778;48.792;9.260;2023-01-23T05:35:59;20.80;;;9.48;;
15356;SDS011;7778;48.792;9.260;2023-01-23T05:38:45;34.15;;;10.10;;
15356;SDS011;7778;48.792;9.260;2023-01-23T05:41:30;28.60;;;11.10;;
15356;SDS011;7778;48.792;9.260;2023-01-23T05:44:16;23.23;;;10.57;;
15356;SDS011;7778;48.792;9.260;2023-01-23T05:47:03;21.67;;;9.73;;
15356;SDS011;7778;48.792;9.260;2023-01-23T05:49:48;25.20;;;10.55;;
15356;SDS011;7778;48.792;9.260;2023-01-23T05:52:34;17.08;;;8.75;;
15356;SDS011;7778;48.792;9.260;2023-01-23T05:55:20;18.83;;;8.68;;
15356;SDS011;7778;48.792;9.260;2023-01-23T05:58:06;19.45;;;8.90;;
15356;SDS011;7778;48.792;9.260;2023-01-23T06:00:51;24.73;;;10.70;;
15356;SDS011;7778;48.792;9.260;2023-01-23T06:03:38;18.17;;;9.27;;
15356;SDS011;7778;48.792;9.260;2023-01-23T06:06:24;27.58;;;10.98;;
15356;SDS011;7778;48.792;9.260;2023-01-23T06:09:09;30.05;;;11.30;;
15356;SDS011;7778;48.792;9.260;2023-01-23T06:11:55;21.52;;;10.38;;
15356;SDS011;7778;48.792;9.260;2023-01-23T06:14:41;20.27;;;9.68;;
15356;SDS011;7778;48.792;9.260;2023-01-23T06:17:26;16.05;;;7.97;;
15356;SDS011;7778;48.792;9.260;2023-01-23T06:20:13;15.23;;;7.90;;
15356;SDS011;7778;48.792;9.260;2023-01-23T06:23:00;13.15;;;6.38;;
15356;SDS011;7778;48.792;9.260;2023-01-23T06:25:45;15.70;;;7.95;;
15356;SDS011;7778;48.792;9.260;2023-01-23T06:28:31;16.88;;;8.30;;
15356;SDS011;7778;48.792;9.260;2023-01-23T06:31:16;15.85;;;7.82;;
15356;SDS011;7778;48.792;9.260;2023-01-23T06:34:02;13.68;;;6.97;;
15356;SDS011;7778;48.792;9.260;2023-01-23T06:36:48;15.40;;;6.80;;
15356;SDS011;7778;48.792;9.260;2023-01-23T06:39:34;16.70;;;7.63;;
15356;SDS011;7778;48.792;9.260;2023-01-23T06:42:19;16.55;;;7.40;;
15356;SDS011;7778;48.792;9.260;2023-01-23T06:45:06;17.25;;;7.55;;
15356;SDS011;7778;48.792;9.260;2023-01-23T06:47:53;16.27;;;7.97;;
15356;SDS011;7778;48.792;9.260;2023-01-23T06:50:39;16.08;;;6.65;;
15356;SDS011;7778;48.792;9.260;2023-01-23T06:53:27;15.70;;;7.55;;
15356;SDS011;7778;48.792;9.260;2023-01-23T06:56:13;13.55;;;7.35;;
15356;SDS011;7778;48.792;9.260;2023-01-23T06:58:58;17.10;;;7.43;;
15356;SDS011;7778;48.792;9.260;2023-01-23T07:01:44;18.50;;;8.68;;
15356;SDS011;7778;48.792;9.260;2023-01-23T07:04:29;15.10;;;7.85;;
15356;SDS011;7778;48.792;9.260;2023-01-23T07:07:17;14.07;;;7.35;;
15356;SDS011;7778;48.792;9.260;2023-01-23T07:10:05;19.98;;;8.63;;
15356;SDS011;7778;48.792;9.260;2023-01-23T07:12:53;20.05;;;9.10;;
15356;SDS011;7778;48.792;9.260;2023-01-23T07:15:38;19.38;;;7.85;;
15356;SDS011;7778;48.792;9.260;2023-01-23T07:18:24;17.30;;;8.55;;
15356;SDS011;7778;48.792;9.260;2023-01-23T07:21:10;17.05;;;7.90;;
15356;SDS011;7778;48.792;9.260;2023-01-23T07:23:56;16.30;;;8.20;;
15356;SDS011;7778;48.792;9.260;2023-01-23T07:26:43;20.05;;;8.18;;
15356;SDS011;7778;48.792;9.260;2023-01-23T07:29:29;11.90;;;6.85;;
15356;SDS011;7778;48.792;9.260;2023-01-23T07:32:15;15.57;;;7.50;;
15356;SDS011;7778;48.792;9.260;2023-01-23T07:35:00;20.08;;;8.88;;
15356;SDS011;7778;48.792;9.260;2023-01-23T07:37:46;18.20;;;9.60;;
15356;SDS011;7778;48.792;9.260;2023-01-23T07:40:32;17.67;;;8.63;;
15356;SDS011;7778;48.792;9.260;2023-01-23T07:43:19;17.67;;;8.57;;
15356;SDS011;7778;48.792;9.260;2023-01-23T07:46:04;25.02;;;8.48;;
15356;SDS011;7778;48.792;9.260;2023-01-23T07:48:50;15.32;;;7.63;;
15356;SDS011;7778;48.792;9.260;2023-01-23T07:51:36;15.77;;;7.72;;
15356;SDS011;7778;48.792;9.260;2023-01-23T07:54:22;19.33;;;8.70;;
15356;SDS011;7778;48.792;9.260;2023-01-23T07:57:08;19.15;;;8.38;;
15356;SDS011;7778;48.792;9.260;2023-01-23T07:59:55;16.60;;;7.13;;
15356;SDS011;7778;48.792;9.260;2023-01-23T08:02:41;18.15;;;7.75;;
15356;SDS011;7778;48.792;9.260;2023-01-23T08:05:26;15.88;;;7.20;;
15356;SDS011;7778;48.792;9.260;2023-01-23T08:08:12;18.08;;;7.68;;
15356;SDS011;7778;48.792;9.260;2023-01-23T08:10:57;15.35;;;7.13;;
15356;SDS011;7778;48.792;9.260;2023-01-23T08:13:47;18.67;;;8.52;;
15356;SDS011;7778;48.792;9.260;2023-01-23T08:16:35;16.58;;;8.25;;
15356;SDS011;7778;48.792;9.260;2023-01-23T08:19:21;13.60;;;7.55;;
15356;SDS011;7778;48.792;9.260;2023-01-23T08:22:11;15.10;;;7.72;;
15356;SDS011;7778;48.792;9.260;2023-01-23T08:24:57;20.23;;;8.73;;
15356;SDS011;7778;48.792;9.260;2023-01-23T08:27:42;17.75;;;7.65;;
15356;SDS011;7778;48.792;9.260;2023-01-23T08:30:28;15.85;;;7.90;;
15356;SDS011;7778;48.792;9.260;2023-01-23T08:33:15;17.35;;;8.13;;
15356;SDS011;7778;48.792;9.260;2023-01-23T08:36:01;18.75;;;8.63;;
15356;SDS011;7778;48.792;9.260;2023-01-23T08:38:48;19.58;;;8.40;;
15356;SDS011;7778;48.792;9.260;2023-01-23T08:41:33;17.90;;;8.23;;
15356;SDS011;7778;48.792;9.260;2023-01-23T08:44:20;14.45;;;7.82;;
15356;SDS011;7778;48.792;9.260;2023-01-23T08:47:06;15.27;;;7.72;;
15356;SDS011;7778;48.792;9.260;2023-01-23T08:49:53;21.30;;;8.82;;
15356;SDS011;7778;48.792;9.260;2023-01-23T08:52:40;18.67;;;7.70;;
15356;SDS011;7778;48.792;9.260;2023-01-23T08:55:25;15.38;;;7.93;;
15356;SDS011;7778;48.792;9.260;2023-01-23T08:58:11;19.05;;;8.45;;
15356;SDS011;7778;48.792;9.260;2023-01-23T09:00:57;11.13;;;5.50;;
15356;SDS011;7778;48.792;9.260;2023-01-23T09:03:43;17.67;;;7.82;;
15356;SDS011;7778;48.792;9.260;2023-01-23T09:06:31;15.93;;;8.40;;
15356;SDS011;7778;48.792;9.260;2023-01-23T09:09:16;13.90;;;6.43;;
15356;SDS011;7778;48.792;9.260;2023-01-23T09:12:02;13.23;;;7.07;;
15356;SDS011;7778;48.792;9.260;2023-01-23T09:14:48;13.02;;;6.10;;
15356;SDS011;7778;48.792;9.260;2023-01-23T09:17:34;12.68;;;6.00;;
15356;SDS011;7778;48.792;9.260;2023-01-23T09:20:20;4.88;;;3.30;;
15356;SDS011;7778;48.792;9.260;2023-01-23T09:23:10;7.85;;;3.85;;
15356;SDS011;7778;48.792;9.260;2023-01-23T09:26:00;9.43;;;4.93;;
15356;SDS011;7778;48.792;9.260;2023-01-23T09:28:47;5.93;;;3.17;;
15356;SDS011;7778;48.792;9.260;2023-01-23T09:31:33;12.45;;;5.90;;
15356;SDS011;7778;48.792;9.260;2023-01-23T09:34:19;10.48;;;5.95;;
15356;SDS011;7778;48.792;9.260;2023-01-23T09:37:05;14.90;;;6.60;;
15356;SDS011;7778;48.792;9.260;2023-01-23T09:39:51;12.30;;;4.95;;
15356;SDS011;7778;48.792;9.260;2023-01-23T09:42:37;5.50;;;3.10;;
15356;SDS011;7778;48.792;9.260;2023-01-23T09:45:23;9.70;;;4.78;;
15356;SDS011;7778;48.792;9.260;2023-01-23T09:48:14;6.82;;;3.53;;
15356;SDS011;7778;48.792;9.260;2023-01-23T09:51:06;8.07;;;5.03;;
15356;SDS011;7778;48.792;9.260;2023-01-23T09:54:03;11.52;;;4.95;;
15356;SDS011;7778;48.792;9.260;2023-01-23T09:57:02;11.93;;;5.18;;
15356;SDS011;7778;48.792;9.260;2023-01-23T09:59:58;11.90;;;6.15;;
15356;SDS011;7778;48.792;9.260;2023-01-23T10:02:50;3.22;;;2.30;;
15356;SDS011;7778;48.792;9.260;2023-01-23T10:05:39;14.45;;;4.80;;
15356;SDS011;7778;48.792;9.260;2023-01-23T10:08:33;12.40;;;5.35;;
15356;SDS011;7778;48.792;9.260;2023-01-23T10:11:27;7.75;;;4.05;;
15356;SDS011;7778;48.792;9.260;2023-01-23T10:14:35;8.48;;;4.55;;
15356;SDS011;7778;48.792;9.260;2023-01-23T10:17:39;9.13;;;5.97;;
15356;SDS011;7778;48.792;9.260;2023-01-23T10:20:45;9.70;;;4.45;;
15356;SDS011;7778;48.792;9.260;2023-01-23T10:23:43;8.65;;;4.63;;
15356;SDS011;7778;48.792;9.260;2023-01-23T10:26:41;12.02;;;5.60;;
15356;SDS011;7778;48.792;9.260;2023-01-23T10:29:29;4.72;;;2.35;;
15356;SDS011;7778;48.792;9.260;2023-01-23T10:32:23;10.98;;;5.55;;
15356;SDS011;7778;48.792;9.260;2023-01-23T10:35:12;13.07;;;4.65;;
15356;SDS011;7778;48.792;9.260;2023-01-23T10:38:04;9.70;;;4.70;;
15356;SDS011;7778;48.792;9.260;2023-01-23T10:41:00;11.45;;;5.90;;
15356;SDS011;7778;48.792;9.260;2023-01-23T10:44:04;10.38;;;5.30;;
15356;SDS011;7778;48.792;9.260;2023-01-23T10:47:01;12.27;;;5.47;;
15356;SDS011;7778;48.792;9.260;2023-01-23T10:49:56;12.85;;;5.80;;
15356;SDS011;7778;48.792;9.260;2023-01-23T10:52:42;11.77;;;5.80;;
15356;SDS011;7778;48.792;9.260;2023-01-23T10:55:29;12.85;;;5.18;;
15356;SDS011;7778;48.792;9.260;2023-01-23T10:58:27;12.90;;;5.85;;
15356;SDS011;7778;48.792;9.260;2023-01-23T11:01:22;16.20;;;4.63;;
15356;SDS011;7778;48.792;9.260;2023-01-23T11:04:16;13.27;;;4.68;;
15356;SDS011;7778;48.792;9.260;2023-01-23T11:07:08;14.82;;;6.68;;
15356;SDS011;7778;48.792;9.260;2023-01-23T11:09:58;14.40;;;4.97;;
15356;SDS011;7778;48.792;9.260;2023-01-23T11:12:47;12.52;;;5.85;;
15356;SDS011;7778;48.792;9.260;2023-01-23T11:15:37;13.25;;;5.60;;
15356;SDS011;7778;48.792;9.260;2023-01-23T11:18:29;13.48;;;6.13;;
15356;SDS011;7778;48.792;9.260;2023-01-23T11:21:22;14.52;;;7.07;;
15356;SDS011;7778;48.792;9.260;2023-01-23T11:24:15;14.52;;;6.00;;
15356;SDS011;7778;48.792;9.260;2023-01-23T11:27:14;13.68;;;5.50;;
15356;SDS011;7778;48.792;9.260;2023-01-23T11:33:20;14.48;;;6.20;;
15356;SDS011;7778;48.792;9.260;2023-01-23T11:36:30;16.50;;;6.90;;
15356;SDS011;7778;48.792;9.260;2023-01-23T11:39:35;13.07;;;6.50;;
15356;SDS011;7778;48.792;9.260;2023-01-23T11:42:29;18.20;;;7.63;;
15356;SDS011;7778;48.792;9.260;2023-01-23T11:45:17;14.18;;;6.88;;
15356;SDS011;7778;48.792;9.260;2023-01-23T11:48:21;12.63;;;6.75;;
15356;SDS011;7778;48.792;9.260;2023-01-23T11:51:33;8.52;;;3.85;;
15356;SDS011;7778;48.792;9.260;2023-01-23T11:57:38;16.27;;;7.15;;
15356;SDS011;7778;48.792;9.260;2023-01-23T12:00:40;15.52;;;6.60;;
15356;SDS011;7778;48.792;9.260;2023-01-23T12:06:59;15.38;;;7.18;;
15356;SDS011;7778;48.792;9.260;2023-01-23T12:10:04;14.93;;;7.38;;
15356;SDS011;7778;48.792;9.260;2023-01-23T12:13:13;13.63;;;6.28;;
15356;SDS011;7778;48.792;9.260;2023-01-23T12:16:17;14.80;;;6.68;;
15356;SDS011;7778;48.792;9.260;2023-01-23T12:19:12;14.27;;;5.75;;
15356;SDS011;7778;48.792;9.260;2023-01-23T12:22:16;13.60;;;6.80;;
15356;SDS011;7778;48.792;9.260;2023-01-23T12:25:13;18.77;;;6.97;;
15356;SDS011;7778;48.792;9.260;2023-01-23T12:28:13;18.85;;;8.23;;
15356;SDS011;7778;48.792;9.260;2023-01-23T12:34:41;12.93;;;6.85;;
15356;SDS011;7778;48.792;9.260;2023-01-23T12:37:45;14.13;;;6.78;;
15356;SDS011;7778;48.792;9.260;2023-01-23T12:40:48;12.95;;;6.07;;
15356;SDS011;7778;48.792;9.260;2023-01-23T12:43:39;18.67;;;7.65;;
15356;SDS011;7778;48.792;9.260;2023-01-23T12:46:33;19.65;;;7.20;;
15356;SDS011;7778;48.792;9.260;2023-01-23T12:49:24;14.15;;;6.30;;
15356;SDS011;7778;48.792;9.260;2023-01-23T12:52:15;11.38;;;5.53;;
15356;SDS011;7778;48.792;9.260;2023-01-23T12:55:13;12.25;;;6.40;;
15356;SDS011;7778;48.792;9.260;2023-01-23T12:58:04;12.50;;;6.15;;
15356;SDS011;7778;48.792;9.260;2023-01-23T13:04:34;10.32;;;5.60;;
15356;SDS011;7778;48.792;9.260;2023-01-23T13:07:36;12.80;;;6.07;;
15356;SDS011;7778;48.792;9.260;2023-01-23T13:10:45;12.90;;;5.78;;
15356;SDS011;7778;48.792;9.260;2023-01-23T13:14:13;16.67;;;7.10;;
15356;SDS011;7778;48.792;9.260;2023-01-23T13:17:02;14.13;;;6.47;;
15356;SDS011;7778;48.792;9.260;2023-01-23T13:20:21;17.48;;;6.38;;
15356;SDS011;7778;48.792;9.260;2023-01-23T13:23:29;14.70;;;6.43;;
15356;SDS011;7778;48.792;9.260;2023-01-23T13:32:32;10.35;;;5.47;;
15356;SDS011;7778;48.792;9.260;2023-01-23T13:38:38;11.45;;;6.05;;
15356;SDS011;7778;48.792;9.260;2023-01-23T13:41:27;10.57;;;4.60;;
15356;SDS011;7778;48.792;9.260;2023-01-23T13:44:17;14.85;;;6.07;;
15356;SDS011;7778;48.792;9.260;2023-01-23T13:47:14;13.43;;;6.35;;
15356;SDS011;7778;48.792;9.260;2023-01-23T13:50:24;14.55;;;5.88;;
15356;SDS011;7778;48.792;9.260;2023-01-23T13:53:19;14.18;;;6.15;;
15356;SDS011;7778;48.792;9.260;2023-01-23T13:56:27;11.90;;;6.20;;
15356;SDS011;7778;48.792;9.260;2023-01-23T13:59:29;13.52;;;6.72;;
15356;SDS011;7778;48.792;9.260;2023-01-23T14:02:21;12.52;;;5.97;;
15356;SDS011;7778;48.792;9.260;2023-01-23T14:05:31;14.00;;;6.03;;
15356;SDS011;7778;48.792;9.260;2023-01-23T14:08:19;12.88;;;6.30;;
15356;SDS011;7778;48.792;9.260;2023-01-23T14:11:11;16.58;;;6.22;;
15356;SDS011;7778;48.792;9.260;2023-01-23T14:14:00;12.93;;;6.22;;
15356;SDS011;7778;48.792;9.260;2023-01-23T14:17:01;9.93;;;5.45;;
15356;SDS011;7778;48.792;9.260;2023-01-23T14:19:51;11.80;;;5.95;;
15356;SDS011;7778;48.792;9.260;2023-01-23T14:22:39;14.73;;;6.03;;
15356;SDS011;7778;48.792;9.260;2023-01-23T14:25:27;12.65;;;5.18;;
15356;SDS011;7778;48.792;9.260;2023-01-23T14:28:14;10.68;;;5.63;;
15356;SDS011;7778;48.792;9.260;2023-01-23T14:31:02;12.45;;;6.25;;
15356;SDS011;7778;48.792;9.260;2023-01-23T14:33:54;14.27;;;5.72;;
15356;SDS011;7778;48.792;9.260;2023-01-23T14:36:45;14.88;;;6.45;;
15356;SDS011;7778;48.792;9.260;2023-01-23T14:39:35;12.20;;;6.15;;
15356;SDS011;7778;48.792;9.260;2023-01-23T14:42:22;14.52;;;6.32;;
15356;SDS011;7778;48.792;9.260;2023-01-23T14:45:10;17.40;;;6.95;;
15356;SDS011;7778;48.792;9.260;2023-01-23T14:47:58;16.23;;;6.45;;
15356;SDS011;7778;48.792;9.260;2023-01-23T14:50:46;9.55;;;5.70;;
15356;SDS011;7778;48.792;9.260;2023-01-23T14:53:32;13.32;;;6.13;;
15356;SDS011;7778;48.792;9.260;2023-01-23T14:56:17;13.48;;;6.50;;
15356;SDS011;7778;48.792;9.260;2023-01-23T14:59:07;13.68;;;7.38;;
15356;SDS011;7778;48.792;9.260;2023-01-23T15:02:19;13.55;;;6.72;;
15356;SDS011;7778;48.792;9.260;2023-01-23T15:05:17;11.95;;;6.53;;
15356;SDS011;7778;48.792;9.260;2023-01-23T15:08:16;10.10;;;5.25;;
15356;SDS011;7778;48.792;9.260;2023-01-23T15:11:06;13.48;;;6.57;;
15356;SDS011;7778;48.792;9.260;2023-01-23T15:13:55;15.73;;;7.68;;
15356;SDS011;7778;48.792;9.260;2023-01-23T15:16:44;16.02;;;7.55;;
15356;SDS011;7778;48.792;9.260;2023-01-23T15:19:30;17.50;;;6.68;;
15356;SDS011;7778;48.792;9.260;2023-01-23T15:22:20;19.35;;;7.85;;
15356;SDS011;7778;48.792;9.260;2023-01-23T15:25:26;15.43;;;7.32;;
15356;SDS011;7778;48.792;9.260;2023-01-23T15:28:28;14.70;;;6.68;;
15356;SDS011;7778;48.792;9.260;2023-01-23T15:31:22;16.13;;;7.88;;
15356;SDS011;7778;48.792;9.260;2023-01-23T15:34:19;11.65;;;6.20;;
15356;SDS011;7778;48.792;9.260;2023-01-23T15:37:17;16.95;;;7.75;;
15356;SDS011;7778;48.792;9.260;2023-01-23T15:40:13;16.58;;;7.30;;
15356;SDS011;7778;48.792;9.260;2023-01-23T15:43:03;19.98;;;7.68;;
15356;SDS011;7778;48.792;9.260;2023-01-23T15:45:54;12.35;;;5.97;;
15356;SDS011;7778;48.792;9.260;2023-01-23T15:48:40;9.32;;;4.28;;
15356;SDS011;7778;48.792;9.260;2023-01-23T15:51:25;15.90;;;7.10;;
15356;SDS011;7778;48.792;9.260;2023-01-23T15:54:14;14.25;;;6.78;;
15356;SDS011;7778;48.792;9.260;2023-01-23T15:57:08;17.20;;;7.50;;
15356;SDS011;7778;48.792;9.260;2023-01-23T15:59:57;20.00;;;7.05;;
15356;SDS011;7778;48.792;9.260;2023-01-23T16:02:44;15.32;;;7.22;;
15356;SDS011;7778;48.792;9.260;2023-01-23T16:05:32;12.45;;;6.38;;
15356;SDS011;7778;48.792;9.260;2023-01-23T16:08:20;14.95;;;7.80;;
15356;SDS011;7778;48.792;9.260;2023-01-23T16:11:08;21.60;;;7.85;;
15356;SDS011;7778;48.792;9.260;2023-01-23T16:13:53;16.40;;;8.10;;
15356;SDS011;7778;48.792;9.260;2023-01-23T16:16:40;19.13;;;7.85;;
15356;SDS011;7778;48.792;9.260;2023-01-23T16:19:26;17.70;;;8.65;;
15356;SDS011;7778;48.792;9.260;2023-01-23T16:22:12;9.10;;;4.20;;
15356;SDS011;7778;48.792;9.260;2023-01-23T16:25:01;18.17;;;7.75;;
15356;SDS011;7778;48.792;9.260;2023-01-23T16:27:47;16.48;;;8.05;;
15356;SDS011;7778;48.792;9.260;2023-01-23T16:30:33;21.42;;;8.43;;
15356;SDS011;7778;48.792;9.260;2023-01-23T16:33:20;15.75;;;7.85;;
15356;SDS011;7778;48.792;9.260;2023-01-23T16:36:09;17.88;;;8.75;;
15356;SDS011;7778;48.792;9.260;2023-01-23T16:38:57;21.63;;;9.10;;
15356;SDS011;7778;48.792;9.260;2023-01-23T16:41:43;18.30;;;8.88;;
15356;SDS011;7778;48.792;9.260;2023-01-23T16:44:29;17.52;;;8.80;;
15356;SDS011;7778;48.792;9.260;2023-01-23T16:47:15;17.90;;;8.27;;
15356;SDS011;7778;48.792;9.260;2023-01-23T16:50:01;21.30;;;11.68;;
15356;SDS011;7778;48.792;9.260;2023-01-23T16:52:49;19.77;;;9.40;;
15356;SDS011;7778;48.792;9.260;2023-01-23T16:55:40;20.38;;;9.45;;
15356;SDS011;7778;48.792;9.260;2023-01-23T16:58:26;20.23;;;8.95;;
15356;SDS011;7778;48.792;9.260;2023-01-23T17:01:16;21.65;;;9.55;;
15356;SDS011;7778;48.792;9.260;2023-01-23T17:04:04;17.25;;;8.93;;
15356;SDS011;7778;48.792;9.260;2023-01-23T17:06:52;21.15;;;10.88;;
15356;SDS011;7778;48.792;9.260;2023-01-23T17:09:38;18.45;;;9.00;;
15356;SDS011;7778;48.792;9.260;2023-01-23T17:12:24;17.00;;;8.90;;
15356;SDS011;7778;48.792;9.260;2023-01-23T17:15:17;42.05;;;15.95;;
15356;SDS011;7778;48.792;9.260;2023-01-23T17:18:05;33.20;;;13.15;;
15356;SDS011;7778;48.792;9.260;2023-01-23T17:21:04;24.17;;;10.80;;
15356;SDS011;7778;48.792;9.260;2023-01-23T17:23:51;26.85;;;10.38;;
15356;SDS011;7778;48.792;9.260;2023-01-23T17:26:37;25.58;;;13.05;;
15356;SDS011;7778;48.792;9.260;2023-01-23T17:29:23;28.80;;;12.48;;